Time;durP1;ratioP1;P1;durP2;ratioP2;P2;SDS_P1;SDS_P2;PMS_P1;PMS_P2;Temp;Humidity;BMP_temperature;BMP_pressure;BME280_temperature;BME280_humidity;BME280_pressure;Samples;Min_cycle;Max_cycle;Signal;HPM_P1;HPM_P2
2022/08/15 00:00:42;;;;;;;0.82;0.50;;;;;;;29.83;39.42;98547.59;5112639;28;20053;-56
2022/08/15 00:03:25;;;;;;;1.08;0.52;;;;;;;29.83;39.22;98556.84;5112413;28;20044;-56
2022/08/15 00:05:52;;;;;;;0.75;0.40;;;;;;;29.84;39.27;98561.22;5112635;28;20043;-57
2022/08/15 00:08:17;;;;;;;0.55;0.47;;;;;;;29.83;39.30;98561.69;5112462;28;20043;-57
2022/08/15 00:10:47;;;;;;;0.80;0.40;;;;;;;29.83;39.54;98562.47;5112430;28;20047;-56
2022/08/15 00:13:15;;;;;;;0.75;0.50;;;;;;;29.83;39.55;98556.06;5112538;28;20053;-57
2022/08/15 00:15:42;;;;;;;0.73;0.52;;;;;;;29.81;39.75;98552.91;5112550;28;20117;-56
2022/08/15 00:18:07;;;;;;;0.30;0.30;;;;;;;29.83;39.24;98550.41;5112408;28;20505;-57
2022/08/15 00:20:37;;;;;;;0.80;0.40;;;;;;;29.84;39.49;98546.34;5112220;28;20533;-56
2022/08/15 00:23:02;;;;;;;0.45;0.40;;;;;;;29.82;39.63;98552.44;5112184;28;20521;-57
2022/08/15 00:25:29;;;;;;;0.98;0.45;;;;;;;29.81;39.75;98548.06;5111996;28;20126;-56
2022/08/15 00:27:55;;;;;;;0.75;0.50;;;;;;;29.81;39.33;98542.41;5109866;28;20048;-56
2022/08/15 00:30:21;;;;;;;0.80;0.40;;;;;;;29.81;39.75;98536.00;5112036;28;20423;-56
2022/08/15 00:32:53;;;;;;;0.93;0.60;;;;;;;29.82;39.42;98526.28;5112180;28;20123;-56
2022/08/15 00:35:39;;;;;;;0.80;0.50;;;;;;;29.83;39.65;98513.75;5112149;28;20088;-57
2022/08/15 00:38:08;;;;;;;0.50;0.40;;;;;;;29.82;39.56;98515.00;5111993;28;20044;-56
2022/08/15 00:41:39;;;;;;;0.80;0.50;;;;;;;29.83;39.62;98513.75;5112089;28;20058;-57
2022/08/15 00:43:20;;;;;;;0.57;0.50;;;;;;;29.84;39.43;98521.75;5111718;28;20126;-57
2022/08/15 00:45:46;;;;;;;1.17;0.70;;;;;;;29.82;39.73;98520.66;5111692;28;20042;-56
2022/08/15 00:50:55;;;;;;;0.50;0.40;;;;;;;29.81;39.73;98519.88;5110792;28;20109;-56
2022/08/15 00:53:21;;;;;;;1.23;0.60;;;;;;;29.82;39.42;98515.00;5111659;28;20052;-56
2022/08/15 00:55:46;;;;;;;1.77;0.60;;;;;;;29.80;39.51;98503.41;5111836;28;20041;-57
2022/08/15 00:58:12;;;;;;;0.47;0.38;;;;;;;29.81;39.72;98511.41;5111842;28;20043;-56
2022/08/15 01:00:43;;;;;;;0.32;0.25;;;;;;;29.82;39.52;98507.34;5111638;28;20039;-56
2022/08/15 01:03:16;;;;;;;1.00;0.52;;;;;;;29.82;39.68;98509.38;5111564;28;20054;-57
2022/08/15 01:05:47;;;;;;;0.68;0.40;;;;;;;29.78;39.84;98503.06;5111623;28;20056;-56
2022/08/15 01:08:16;;;;;;;0.50;0.40;;;;;;;29.80;39.49;98507.03;5111567;28;20500;-57
2022/08/15 01:10:43;;;;;;;0.75;0.55;;;;;;;29.82;39.74;98510.16;5111542;28;20130;-57
2022/08/15 01:13:09;;;;;;;0.90;0.60;;;;;;;29.82;39.64;98515.78;5111412;28;20039;-57
2022/08/15 01:15:38;;;;;;;0.73;0.50;;;;;;;29.82;39.43;98506.56;5111374;28;20427;-57
2022/08/15 01:18:04;;;;;;;0.60;0.50;;;;;;;29.81;39.45;98496.53;5111451;28;20482;-57
2022/08/15 01:20:33;;;;;;;0.90;0.52;;;;;;;29.81;39.81;98491.69;5111457;28;20115;-56
2022/08/15 01:23:11;;;;;;;1.00;0.50;;;;;;;29.82;39.64;98484.00;5111291;28;20519;-56
2022/08/15 01:25:54;;;;;;;0.93;0.60;;;;;;;29.81;39.44;98490.88;5111177;28;20040;-57
2022/08/15 01:28:25;;;;;;;0.80;0.45;;;;;;;29.82;39.58;98493.25;5111296;28;20046;-57
2022/08/15 01:30:55;;;;;;;0.40;0.40;;;;;;;29.78;39.52;98481.31;5111135;28;20044;-56
2022/08/15 01:33:23;;;;;;;1.05;0.55;;;;;;;29.82;39.72;98490.44;5111064;28;20066;-57
2022/08/15 01:35:51;;;;;;;0.82;0.50;;;;;;;29.81;39.63;98485.25;5111182;28;20043;-56
2022/08/15 01:38:33;;;;;;;0.68;0.40;;;;;;;29.81;39.36;98490.88;5111206;28;20048;-56
2022/08/15 01:41:04;;;;;;;0.60;0.40;;;;;;;29.83;39.38;98488.38;5111225;28;20448;-56
2022/08/15 01:43:33;;;;;;;0.50;0.30;;;;;;;29.82;39.51;98489.63;5110827;28;20297;-57
2022/08/15 01:46:05;;;;;;;0.57;0.47;;;;;;;29.82;39.49;98487.59;5111023;28;20388;-56
2022/08/15 01:48:36;;;;;;;0.77;0.55;;;;;;;29.82;39.66;98486.81;5111001;28;20055;-59
2022/08/15 01:51:06;;;;;;;1.42;0.40;;;;;;;29.80;39.47;98484.47;5110870;28;20103;-59
2022/08/15 01:53:46;;;;;;;0.38;0.32;;;;;;;29.81;39.78;98483.22;5111034;28;20104;-59
2022/08/15 01:56:29;;;;;;;0.43;0.40;;;;;;;29.80;39.62;98483.69;5110550;28;20040;-59
2022/08/15 01:58:54;;;;;;;0.40;0.40;;;;;;;29.78;39.51;98480.50;5108007;28;20050;-59
2022/08/15 02:01:37;;;;;;;0.70;0.50;;;;;;;29.81;39.46;98485.25;5110627;28;20047;-59
2022/08/15 02:04:03;;;;;;;;;;;;;;;29.88;39.35;98485.00;5111238;28;20048;-59
2022/08/15 02:06:29;;;;;;;0.68;0.50;;;;;;;29.86;39.30;98487.47;5110806;28;19915;-59
2022/08/15 02:08:56;;;;;;;0.95;0.52;;;;;;;29.83;39.83;98488.38;5110651;28;20089;-59
2022/08/15 02:11:25;;;;;;;0.93;0.50;;;;;;;29.80;39.63;98483.69;5110355;28;20050;-59
2022/08/15 02:13:54;;;;;;;0.77;0.43;;;;;;;29.80;39.52;98492.13;5110421;28;20048;-58
2022/08/15 02:16:23;;;;;;;0.52;0.35;;;;;;;29.80;39.65;98489.31;5110537;28;20082;-59
2022/08/15 02:18:49;;;;;;;0.40;0.38;;;;;;;29.80;39.68;98481.66;5110340;28;20040;-59
2022/08/15 02:21:14;;;;;;;1.10;0.60;;;;;;;29.79;39.67;98485.72;5110187;28;20061;-59
2022/08/15 02:23:40;;;;;;;0.85;0.57;;;;;;;29.80;39.71;98490.09;5110210;28;20341;-59
2022/08/15 02:26:08;;;;;;;1.13;0.55;;;;;;;29.79;39.49;98494.19;5110205;28;20046;-59
2022/08/15 02:28:35;;;;;;;0.75;0.45;;;;;;;29.82;39.42;98486.81;5110288;28;20062;-59
2022/08/15 02:31:05;;;;;;;0.73;0.50;;;;;;;29.79;39.75;98485.72;5110310;28;20057;-59
2022/08/15 02:33:30;;;;;;;0.50;0.30;;;;;;;29.81;39.43;98485.25;5110321;28;20467;-59
2022/08/15 02:35:56;;;;;;;0.43;0.38;;;;;;;29.82;39.59;98492.47;5110239;28;20067;-59
2022/08/15 02:38:21;;;;;;;0.68;0.50;;;;;;;29.78;39.60;98481.31;5110101;28;20047;-59
2022/08/15 02:40:48;;;;;;;0.60;0.50;;;;;;;29.81;39.72;98485.25;5110243;28;20442;-59
2022/08/15 02:43:14;;;;;;;0.75;0.40;;;;;;;29.81;39.41;98491.69;5109990;28;20126;-59
2022/08/15 02:45:47;;;;;;;0.47;0.40;;;;;;;29.79;39.35;98485.72;5110071;28;20085;-59
2022/08/15 02:48:13;;;;;;;1.00;0.50;;;;;;;29.82;39.74;98487.59;5109930;28;20040;-59
2022/08/15 02:50:39;;;;;;;0.65;0.50;;;;;;;29.79;39.45;98482.91;5109803;28;20048;-59
2022/08/15 02:53:10;;;;;;;2.53;0.65;;;;;;;29.79;39.51;98482.09;5110033;28;20051;-59
2022/08/15 02:55:36;;;;;;;0.60;0.50;;;;;;;29.80;39.42;98480.88;5109922;28;20051;-59
2022/08/15 02:58:02;;;;;;;0.93;0.52;;;;;;;29.81;39.59;98482.44;5109567;28;20055;-59
2022/08/15 03:00:29;;;;;;;3.70;0.60;;;;;;;29.79;39.73;98482.91;5109749;28;20051;-59
2022/08/15 03:02:58;;;;;;;0.63;0.40;;;;;;;29.80;39.81;98484.47;5109650;28;20094;-59
2022/08/15 03:05:26;;;;;;;0.60;0.50;;;;;;;29.77;39.79;98479.72;5109774;28;20050;-59
2022/08/15 03:07:52;;;;;;;1.15;0.50;;;;;;;29.81;39.48;98486.03;5109677;28;20127;-59
2022/08/15 03:10:19;;;;;;;0.40;0.40;;;;;;;29.79;39.50;98477.25;5109747;28;20181;-59
2022/08/15 03:12:54;;;;;;;1.02;0.50;;;;;;;29.80;39.68;98486.50;5109903;28;20045;-59
2022/08/15 03:15:32;;;;;;;0.57;0.40;;;;;;;29.81;39.52;98485.25;5109801;28;20054;-59
2022/08/15 03:17:59;;;;;;;0.40;0.30;;;;;;;29.80;39.42;98476.00;5109574;28;20044;-58
2022/08/15 03:20:26;;;;;;;0.43;0.40;;;;;;;29.79;39.66;98480.06;5109551;28;20047;-59
2022/08/15 03:22:53;;;;;;;1.17;0.50;;;;;;;29.79;39.55;98473.63;5109262;28;20495;-59
2022/08/15 03:25:21;;;;;;;1.13;0.70;;;;;;;29.79;39.62;98474.44;5109611;28;20066;-56
2022/08/15 03:27:47;;;;;;;0.40;0.38;;;;;;;29.79;39.84;98476.44;5109547;28;20503;-57
2022/08/15 03:30:15;;;;;;;0.65;0.40;;;;;;;29.79;39.45;98477.25;5109445;28;21102;-57
2022/08/15 03:32:48;;;;;;;0.63;0.40;;;;;;;29.80;39.45;98484.47;5109465;28;20039;-56
2022/08/15 03:35:14;;;;;;;0.45;0.40;;;;;;;29.78;39.90;98481.31;5109463;28;20507;-57
2022/08/15 03:37:40;;;;;;;1.02;0.50;;;;;;;29.79;39.85;98474.44;5109272;28;20047;-56
2022/08/15 03:40:07;;;;;;;0.65;0.50;;;;;;;29.79;39.65;98471.63;5109272;28;20050;-57
2022/08/15 03:42:33;;;;;;;1.00;0.52;;;;;;;29.80;39.82;98481.66;5109283;28;20051;-56
2022/08/15 03:45:02;;;;;;;0.80;0.43;;;;;;;29.79;39.87;98480.06;5109145;28;20040;-57
2022/08/15 03:47:28;;;;;;;0.88;0.32;;;;;;;29.77;39.77;98476.13;5108942;28;20047;-57
2022/08/15 03:49:54;;;;;;;0.75;0.40;;;;;;;29.80;39.46;98478.03;5109295;28;20048;-57
2022/08/15 03:52:19;;;;;;;0.50;0.40;;;;;;;29.78;39.42;98472.06;5109070;28;20118;-57
2022/08/15 03:54:44;;;;;;;0.50;0.38;;;;;;;29.81;39.49;98473.97;5109057;28;20048;-56
2022/08/15 03:57:10;;;;;;;0.75;0.40;;;;;;;29.75;39.56;98468.13;5109102;28;20100;-56
2022/08/15 03:59:35;;;;;;;0.45;0.40;;;;;;;29.79;39.41;98471.63;5109069;28;20048;-56
2022/08/15 04:02:02;;;;;;;0.63;0.40;;;;;;;29.80;39.60;98478.81;5108873;28;21391;-56
2022/08/15 04:04:28;;;;;;;0.30;0.30;;;;;;;29.79;39.68;98474.44;5108862;28;20043;-57
2022/08/15 04:06:53;;;;;;;1.15;0.63;;;;;;;29.79;39.77;98474.44;5109044;28;20048;-56
2022/08/15 04:09:18;;;;;;;0.50;0.40;;;;;;;29.77;39.87;98462.81;5109200;28;20048;-57
2022/08/15 04:11:44;;;;;;;0.43;0.40;;;;;;;29.80;39.45;98475.22;5108830;28;20046;-56
2022/08/15 04:14:10;;;;;;;0.85;0.50;;;;;;;29.80;39.54;98472.41;5109040;28;20039;-56
2022/08/15 04:16:36;;;;;;;0.40;0.40;;;;;;;29.78;39.65;98469.25;5109091;28;20079;-56
2022/08/15 04:19:01;;;;;;;1.00;0.40;;;;;;;29.79;39.79;98473.63;5108871;28;20074;-56
2022/08/15 04:21:27;;;;;;;0.50;0.40;;;;;;;29.80;39.54;98466.78;5111294;28;20472;-56
2022/08/15 04:23:52;;;;;;;0.70;0.40;;;;;;;29.79;39.87;98465.97;5112255;28;20518;-56
2022/08/15 04:26:18;;;;;;;0.35;0.35;;;;;;;29.80;39.74;98469.59;5112452;28;20046;-56
2022/08/15 04:28:44;;;;;;;1.23;0.40;;;;;;;29.78;39.76;98464.38;5112215;28;20089;-56
2022/08/15 04:31:14;;;;;;;0.43;0.40;;;;;;;29.79;39.68;98465.16;5112115;28;20530;-56
2022/08/15 04:33:40;;;;;;;0.50;0.40;;;;;;;29.80;39.32;98463.94;5111997;28;20048;-56
2022/08/15 04:36:09;;;;;;;0.40;0.40;;;;;;;29.79;39.54;98465.16;5112174;28;20511;-56
2022/08/15 04:38:36;;;;;;;0.70;0.40;;;;;;;29.79;39.54;98463.16;5111933;28;20044;-57
2022/08/15 04:41:04;;;;;;;1.13;0.45;;;;;;;29.79;39.80;98465.16;5111919;28;20126;-56
2022/08/15 04:43:31;;;;;;;0.60;0.40;;;;;;;29.79;39.53;98463.16;5111996;28;20067;-56
2022/08/15 04:45:56;;;;;;;0.30;0.30;;;;;;;29.80;39.54;98476.00;5109868;28;20054;-56
2022/08/15 04:48:22;;;;;;;0.63;0.50;;;;;;;29.78;39.48;98472.06;5111776;28;20055;-56
2022/08/15 04:50:49;;;;;;;0.65;0.50;;;;;;;29.78;39.78;98475.66;5092948;28;20051;-57
2022/08/15 04:53:16;;;;;;;0.40;0.30;;;;;;;29.77;39.45;98476.91;5111703;28;20423;-57
2022/08/15 04:55:44;;;;;;;0.68;0.50;;;;;;;29.78;39.77;98480.50;5111718;28;20051;-57
2022/08/15 04:58:13;;;;;;;0.63;0.40;;;;;;;29.79;39.84;98476.44;5111693;28;20059;-57
2022/08/15 05:00:42;;;;;;;0.70;0.40;;;;;;;29.79;39.53;98482.91;5111442;28;20396;-57
2022/08/15 05:03:13;;;;;;;0.43;0.38;;;;;;;29.76;39.84;98478.16;5111710;28;20348;-57
2022/08/15 05:05:48;;;;;;;0.43;0.40;;;;;;;29.79;39.54;98479.25;5111526;28;20514;-57
2022/08/15 05:08:15;;;;;;;0.47;0.40;;;;;;;29.79;39.68;98485.72;5111560;28;20051;-57
2022/08/15 05:10:42;;;;;;;0.93;0.60;;;;;;;29.79;39.83;98488.53;5111571;28;20101;-56
2022/08/15 05:13:19;;;;;;;0.80;0.40;;;;;;;29.78;39.66;98489.75;5111380;28;20067;-57
2022/08/15 05:15:46;;;;;;;1.02;0.50;;;;;;;29.79;39.92;98487.72;5111381;28;20542;-57
2022/08/15 05:18:12;;;;;;;0.50;0.40;;;;;;;29.78;39.77;98492.56;5111303;28;20070;-57
2022/08/15 05:20:41;;;;;;;1.15;0.47;;;;;;;29.80;39.39;98494.97;5111418;28;20075;-57
2022/08/15 05:23:09;;;;;;;0.90;0.40;;;;;;;29.79;39.88;98490.53;5111168;28;20051;-56
2022/08/15 05:25:39;;;;;;;0.47;0.40;;;;;;;29.79;39.47;98487.72;5111391;28;20046;-56
2022/08/15 05:28:05;;;;;;;1.45;0.50;;;;;;;29.79;39.45;98487.72;5111328;28;20502;-56
2022/08/15 05:30:31;;;;;;;0.75;0.50;;;;;;;29.79;39.46;98479.25;5111323;28;20043;-57
2022/08/15 05:33:32;;;;;;;0.60;0.40;;;;;;;29.79;39.73;98487.72;5109963;28;20050;-57
2022/08/15 05:35:59;;;;;;;0.70;0.38;;;;;;;29.78;39.73;98486.16;5008686;28;20050;-57
2022/08/15 05:38:49;;;;;;;0.90;0.50;;;;;;;29.79;39.60;98490.53;5008567;28;20069;-57
2022/08/15 05:41:32;;;;;;;0.57;0.40;;;;;;;29.80;39.75;98486.50;5008621;28;20052;-56
2022/08/15 05:44:07;;;;;;;0.30;0.30;;;;;;;29.79;39.91;98487.72;5008395;28;20064;-57
2022/08/15 05:46:42;;;;;;;0.45;0.40;;;;;;;29.77;39.50;98479.72;5008454;28;20050;-57
2022/08/15 05:49:28;;;;;;;0.40;0.40;;;;;;;29.77;39.43;98485.38;5008401;28;20077;-56
2022/08/15 05:52:06;;;;;;;1.02;0.52;;;;;;;29.78;39.55;98480.50;5008414;28;20547;-56
2022/08/15 05:54:48;;;;;;;0.30;0.30;;;;;;;29.79;39.68;98487.72;5008262;28;20073;-57
2022/08/15 05:57:32;;;;;;;0.83;0.53;;;;;;;29.77;39.69;98476.91;5008168;28;20089;-57
2022/08/15 06:00:04;;;;;;;0.50;0.50;;;;;;;29.78;39.46;98470.03;5008161;28;20573;-56
2022/08/15 06:02:35;;;;;;;0.73;0.50;;;;;;;29.72;39.69;98468.25;5007915;28;20058;-56
2022/08/15 06:05:37;;;;;;;0.68;0.40;;;;;;;29.58;39.67;98476.00;5008102;28;20188;-56
2022/08/15 06:08:10;;;;;;;0.60;0.40;;;;;;;29.47;39.38;98471.97;5005889;28;20112;-57
2022/08/15 06:10:42;;;;;;;0.65;0.50;;;;;;;29.32;40.26;98477.31;5085397;28;20415;-59
2022/08/15 06:13:37;;;;;;;0.75;0.50;;;;;;;29.09;41.14;98467.25;5110628;28;20123;-59
2022/08/15 06:16:17;;;;;;;0.43;0.40;;;;;;;28.93;41.41;98462.53;5108282;28;20047;-59
2022/08/15 06:18:44;;;;;;;0.68;0.50;;;;;;;28.89;41.42;98464.66;5110460;28;20047;-59
2022/08/15 06:21:09;;;;;;;0.40;0.40;;;;;;;28.88;41.21;98465.91;5110493;28;20046;-59
2022/08/15 06:23:59;;;;;;;0.88;0.52;;;;;;;28.85;40.22;98463.97;5110263;28;20043;-59
2022/08/15 06:26:48;;;;;;;0.70;0.47;;;;;;;28.83;41.49;98460.06;5094059;28;20047;-59
2022/08/15 06:29:32;;;;;;;0.90;0.60;;;;;;;28.68;41.89;98471.00;5110250;28;20040;-59
2022/08/15 06:32:10;;;;;;;0.68;0.40;;;;;;;28.62;41.71;98467.16;5110141;28;20056;-59
2022/08/15 06:34:47;;;;;;;0.73;0.50;;;;;;;28.63;41.90;98468.75;5110373;28;20036;-59
2022/08/15 06:37:28;;;;;;;0.68;0.50;;;;;;;28.67;41.40;98461.75;5110074;28;20113;-59
2022/08/15 06:40:09;;;;;;;0.82;0.60;;;;;;;28.68;40.46;98457.72;5109873;28;20048;-59
2022/08/15 06:42:38;;;;;;;0.85;0.57;;;;;;;28.65;42.06;98449.41;5109805;28;20055;-59
2022/08/15 06:45:26;;;;;;;0.63;0.40;;;;;;;28.57;41.92;98451.63;5110354;28;20047;-59
2022/08/15 06:48:00;;;;;;;0.57;0.40;;;;;;;28.51;42.06;98443.00;5110047;28;20142;-59
2022/08/15 06:50:38;;;;;;;0.63;0.50;;;;;;;28.52;42.13;98449.41;5109784;28;20059;-59
2022/08/15 06:53:13;;;;;;;0.40;0.30;;;;;;;28.59;41.75;98452.00;5091522;28;20100;-59
2022/08/15 06:55:52;;;;;;;0.50;0.50;;;;;;;28.64;41.53;98445.00;5109880;28;20051;-59
2022/08/15 06:58:29;;;;;;;0.68;0.50;;;;;;;28.70;41.46;98457.25;5109663;28;20043;-59
2022/08/15 07:01:02;;;;;;;0.40;0.40;;;;;;;28.70;41.12;98446.78;5109740;28;20108;-59
2022/08/15 07:03:50;;;;;;;0.73;0.50;;;;;;;28.69;41.29;98444.44;5107755;28;20419;-59
2022/08/15 07:06:21;;;;;;;0.68;0.50;;;;;;;28.76;41.23;98453.41;5109883;28;20385;-59
2022/08/15 07:09:00;;;;;;;0.65;0.40;;;;;;;28.76;41.14;98452.63;5109815;28;20878;-59
2022/08/15 07:11:37;;;;;;;0.40;0.40;;;;;;;28.77;41.43;98451.38;5109775;28;20521;-59
2022/08/15 07:14:06;;;;;;;1.00;0.40;;;;;;;28.73;40.65;98451.53;5109920;28;20047;-59
2022/08/15 07:16:50;;;;;;;0.45;0.40;;;;;;;28.71;40.76;98442.72;5109597;28;20055;-59
2022/08/15 07:19:16;;;;;;;0.47;0.40;;;;;;;28.65;41.46;98443.78;5109609;28;20048;-59
2022/08/15 07:21:43;;;;;;;0.47;0.45;;;;;;;28.57;41.86;98439.59;5109561;28;20047;-59
2022/08/15 07:24:24;;;;;;;0.32;0.32;;;;;;;28.52;41.70;98438.16;5109480;28;20394;-59
2022/08/15 07:26:54;;;;;;;0.95;0.60;;;;;;;28.54;41.57;98434.88;5109467;28;20131;-59
2022/08/15 07:29:37;;;;;;;0.40;0.38;;;;;;;28.57;41.58;98446.00;5109310;28;20116;-59
2022/08/15 07:32:12;;;;;;;0.70;0.55;;;;;;;28.67;41.50;98452.53;5109491;28;20130;-59
2022/08/15 07:35:12;;;;;;;0.50;0.40;;;;;;;28.67;40.33;98450.50;5109519;28;20435;-59
2022/08/15 07:38:00;;;;;;;0.47;0.47;;;;;;;28.64;41.12;98442.16;5098360;28;20506;-59
2022/08/15 07:40:29;;;;;;;0.60;0.40;;;;;;;28.56;41.40;98450.06;5108805;28;20553;-58
2022/08/15 07:42:55;;;;;;;0.52;0.45;;;;;;;28.44;41.43;98454.47;5109134;28;20044;-59
2022/08/15 07:45:32;;;;;;;0.63;0.50;;;;;;;28.41;41.37;98443.31;5109471;28;20442;-59
2022/08/15 07:48:22;;;;;;;0.55;0.50;;;;;;;28.43;41.51;98443.66;5107267;28;20119;-59
2022/08/15 07:51:06;;;;;;;0.40;0.40;;;;;;;28.44;41.02;98440.41;5100783;28;20048;-59
2022/08/15 07:53:33;;;;;;;0.45;0.45;;;;;;;28.43;41.10;98438.84;5109318;28;20546;-59
2022/08/15 07:56:14;;;;;;;0.50;0.45;;;;;;;28.45;41.25;98433.53;5111227;28;20051;-59
2022/08/15 07:58:41;;;;;;;0.30;0.30;;;;;;;28.47;40.97;98436.69;5112739;28;20145;-59
2022/08/15 08:01:13;;;;;;;0.73;0.50;;;;;;;28.48;40.90;98432.63;5112682;28;20043;-59
2022/08/15 08:03:45;;;;;;;0.70;0.50;;;;;;;28.55;40.57;98436.44;5112615;28;20097;-59
2022/08/15 08:06:31;;;;;;;0.73;0.50;;;;;;;28.57;40.62;98439.59;5112446;28;20124;-59
2022/08/15 08:09:06;;;;;;;0.50;0.40;;;;;;;28.57;40.58;98431.94;5112595;28;20047;-59
2022/08/15 08:11:45;;;;;;;0.50;0.47;;;;;;;28.55;40.59;98433.63;5093972;28;20533;-59
2022/08/15 08:14:52;;;;;;;0.60;0.50;;;;;;;28.58;40.53;98436.34;5112421;28;20086;-59
2022/08/15 08:17:42;;;;;;;0.52;0.40;;;;;;;28.57;40.42;98440.38;5112645;28;20054;-59
2022/08/15 08:20:29;;;;;;;0.73;0.57;;;;;;;28.60;40.25;98436.69;5112017;28;20060;-58
2022/08/15 08:23:03;;;;;;;0.52;0.50;;;;;;;28.64;40.29;98442.16;5111186;28;20052;-58
2022/08/15 08:26:07;;;;;;;0.55;0.43;;;;;;;28.63;40.41;98443.41;5112216;28;20051;-59
2022/08/15 08:28:43;;;;;;;0.50;0.50;;;;;;;28.60;40.46;98444.34;5085980;28;20212;-59
2022/08/15 08:31:46;;;;;;;0.50;0.50;;;;;;;28.61;40.70;98446.69;5112292;28;20043;-59
2022/08/15 08:34:19;;;;;;;0.65;0.50;;;;;;;28.61;40.74;98437.47;5112146;28;20046;-59
2022/08/15 08:37:07;;;;;;;0.30;0.30;;;;;;;28.64;40.52;98440.16;5112061;28;20039;-59
2022/08/15 08:39:52;;;;;;;0.88;0.50;;;;;;;28.68;40.55;98437.22;5112198;28;20051;-59
2022/08/15 08:42:47;;;;;;;0.55;0.50;;;;;;;28.71;40.55;98444.75;5111934;28;20511;-59
2022/08/15 08:45:21;;;;;;;0.63;0.50;;;;;;;28.71;40.67;98437.09;5111927;28;20087;-59
2022/08/15 08:48:18;;;;;;;0.95;0.50;;;;;;;28.69;40.63;98444.44;5111709;28;20048;-59
2022/08/15 08:50:47;;;;;;;0.60;0.40;;;;;;;28.71;40.69;98450.38;5111933;28;20050;-59
2022/08/15 08:53:49;;;;;;;0.47;0.40;;;;;;;28.70;39.67;98443.97;5111825;28;20044;-59
2022/08/15 08:56:22;;;;;;;0.55;0.47;;;;;;;28.67;40.34;98442.06;5111963;28;20044;-59
2022/08/15 08:58:54;;;;;;;0.52;0.50;;;;;;;28.58;40.33;98446.81;5111904;28;20094;-59
2022/08/15 09:01:23;;;;;;;0.68;0.55;;;;;;;28.49;40.51;98445.44;5110219;28;20356;-59
2022/08/15 09:03:53;;;;;;;0.40;0.40;;;;;;;28.49;40.39;98431.38;5111828;28;20047;-59
2022/08/15 09:06:24;;;;;;;0.30;0.30;;;;;;;28.50;40.54;98432.16;5111555;28;20514;-59
2022/08/15 09:08:57;;;;;;;0.60;0.40;;;;;;;28.49;40.49;98436.22;5111523;28;20039;-59
2022/08/15 09:11:30;;;;;;;0.47;0.40;;;;;;;28.49;40.42;98436.22;5111420;28;20043;-59
2022/08/15 09:13:58;;;;;;;0.80;0.50;;;;;;;28.51;40.17;98419.69;5111623;28;20519;-59
2022/08/15 09:16:31;;;;;;;0.30;0.30;;;;;;;28.51;39.91;98436.59;5111644;28;20055;-59
2022/08/15 09:19:19;;;;;;;0.70;0.45;;;;;;;28.49;40.07;98422.94;5111533;28;20507;-59
2022/08/15 09:21:45;;;;;;;0.85;0.50;;;;;;;28.51;39.94;98425.31;5111482;28;20047;-59
2022/08/15 09:24:12;;;;;;;0.55;0.40;;;;;;;28.52;39.88;98432.53;5111316;28;20061;-58
2022/08/15 09:26:46;;;;;;;0.32;0.32;;;;;;;28.54;39.85;98437.69;5111440;28;20059;-59
2022/08/15 09:29:25;;;;;;;0.55;0.40;;;;;;;28.55;39.88;98442.88;5111317;28;20118;-59
2022/08/15 09:32:09;;;;;;;0.65;0.40;;;;;;;28.50;39.80;98437.78;5110093;28;20040;-59
2022/08/15 09:34:50;;;;;;;0.57;0.50;;;;;;;28.51;39.82;98436.59;5092904;28;20058;-59
2022/08/15 09:37:34;;;;;;;0.68;0.40;;;;;;;28.50;39.57;98441.41;5111146;28;20043;-59
2022/08/15 09:40:03;;;;;;;0.55;0.45;;;;;;;28.52;39.51;98441.75;5111169;28;20047;-59
2022/08/15 09:42:34;;;;;;;0.45;0.40;;;;;;;28.56;39.48;98435.22;5111028;28;20051;-59
2022/08/15 09:45:12;;;;;;;0.45;0.40;;;;;;;28.58;39.31;98425.09;5111225;28;20738;-59
2022/08/15 09:47:59;;;;;;;0.52;0.45;;;;;;;28.54;39.40;98424.41;5110969;28;20047;-59
2022/08/15 09:50:34;;;;;;;0.30;0.30;;;;;;;28.51;39.58;98420.47;5111009;28;20044;-59
2022/08/15 09:53:24;;;;;;;0.80;0.50;;;;;;;28.49;39.30;98422.16;5110885;28;20048;-59
2022/08/15 09:55:51;;;;;;;0.65;0.47;;;;;;;28.54;39.27;98424.41;5110687;28;20048;-59
2022/08/15 09:58:24;;;;;;;0.77;0.40;;;;;;;28.55;39.50;98425.19;5110716;28;20039;-59
2022/08/15 10:01:20;;;;;;;0.60;0.40;;;;;;;28.46;39.86;98417.44;5110714;28;20566;-59
2022/08/15 10:03:45;;;;;;;0.50;0.40;;;;;;;28.52;39.84;98418.47;5110650;28;20075;-59
2022/08/15 10:06:27;;;;;;;0.73;0.60;;;;;;;28.55;40.01;98419.56;5110822;28;20143;-59
2022/08/15 10:08:55;;;;;;;0.50;0.50;;;;;;;28.52;39.97;98413.63;5110678;28;20077;-59
2022/08/15 10:11:55;;;;;;;0.50;0.40;;;;;;;28.55;40.00;98417.53;5110577;28;20128;-59
2022/08/15 10:14:20;;;;;;;0.30;0.30;;;;;;;28.60;39.91;98414.16;5055780;28;20132;-59
2022/08/15 10:16:49;;;;;;;0.60;0.50;;;;;;;28.63;40.06;98420.91;5110536;28;20070;-59
2022/08/15 10:19:35;;;;;;;0.40;0.40;;;;;;;28.64;40.14;98419.66;5109690;28;20830;-59
2022/08/15 10:22:24;;;;;;;0.70;0.40;;;;;;;28.63;40.25;98415.28;5110404;28;20134;-59
2022/08/15 10:25:26;;;;;;;0.43;0.40;;;;;;;28.66;40.21;98412.34;5110433;28;20095;-59
2022/08/15 10:27:55;;;;;;;0.32;0.30;;;;;;;28.70;40.15;98409.41;5110401;28;20078;-59
2022/08/15 10:30:24;;;;;;;0.75;0.50;;;;;;;28.69;40.29;98393.78;5110182;28;20380;-59
2022/08/15 10:32:52;;;;;;;0.85;0.50;;;;;;;28.70;40.15;98398.94;5110186;28;20048;-59
2022/08/15 10:35:36;;;;;;;0.32;0.32;;;;;;;28.72;39.36;98392.84;5110234;28;20044;-59
2022/08/15 10:38:07;;;;;;;0.47;0.40;;;;;;;28.69;39.80;98393.78;5109759;28;20477;-59
2022/08/15 10:41:14;;;;;;;0.95;0.50;;;;;;;28.63;40.33;98387.13;5107951;28;20535;-59
2022/08/15 10:43:58;;;;;;;0.82;0.45;;;;;;;28.47;40.45;98386.03;5094169;28;20063;-59
2022/08/15 10:46:43;;;;;;;0.88;0.47;;;;;;;28.49;40.61;98382.78;5109806;28;20052;-59
2022/08/15 10:49:21;;;;;;;0.40;0.38;;;;;;;28.48;40.38;98378.38;5110121;28;20105;-59
2022/08/15 10:52:07;;;;;;;0.40;0.40;;;;;;;28.54;40.35;98389.88;5109947;28;20423;-59
2022/08/15 10:54:56;;;;;;;0.50;0.40;;;;;;;28.57;40.35;98388.94;5109982;28;20060;-59
2022/08/15 10:57:24;;;;;;;0.60;0.50;;;;;;;28.61;40.08;98392.44;5110142;28;20036;-59
2022/08/15 10:59:54;;;;;;;0.40;0.40;;;;;;;28.63;39.97;98387.94;5109769;28;20048;-59
2022/08/15 11:02:31;;;;;;;0.80;0.30;;;;;;;28.64;40.03;98371.81;5109902;28;20043;-59
2022/08/15 11:05:09;;;;;;;0.68;0.38;;;;;;;28.68;40.04;98378.13;5109863;28;20096;-59
2022/08/15 11:07:37;;;;;;;0.65;0.40;;;;;;;28.67;40.02;98366.09;5109942;28;20044;-59
2022/08/15 11:10:14;;;;;;;0.65;0.47;;;;;;;28.70;40.11;98370.00;5107903;28;20047;-59
2022/08/15 11:12:54;;;;;;;0.30;0.30;;;;;;;28.71;39.98;98369.56;5108568;28;20074;-59
2022/08/15 11:15:27;;;;;;;0.52;0.40;;;;;;;28.72;40.03;98370.34;5109804;28;20044;-59
2022/08/15 11:18:08;;;;;;;0.40;0.35;;;;;;;28.73;39.98;98366.31;5109725;28;20122;-59
2022/08/15 11:20:56;;;;;;;0.70;0.50;;;;;;;28.76;39.72;98359.75;5107528;28;20044;-59
2022/08/15 11:23:35;;;;;;;0.40;0.40;;;;;;;28.74;40.01;98360.22;5109520;28;20047;-57
2022/08/15 11:26:01;;;;;;;0.30;0.30;;;;;;;28.73;39.93;98355.06;5109647;28;20059;-56
2022/08/15 11:28:30;;;;;;;0.82;0.50;;;;;;;28.74;40.14;98351.00;5109632;28;20043;-56
2022/08/15 11:31:07;;;;;;;0.30;0.30;;;;;;;28.73;40.04;98340.97;5111531;28;20134;-56
2022/08/15 11:33:42;;;;;;;0.30;0.30;;;;;;;28.76;39.80;98351.31;5113145;28;20556;-57
2022/08/15 11:36:25;;;;;;;0.63;0.45;;;;;;;28.75;39.49;98347.72;5111550;28;20050;-56
2022/08/15 11:38:57;;;;;;;0.30;0.30;;;;;;;28.75;40.03;98332.84;5112959;28;20070;-56
2022/08/15 11:41:27;;;;;;;0.43;0.30;;;;;;;28.67;40.18;98337.16;5113053;28;20044;-57
2022/08/15 11:43:58;;;;;;;0.73;0.43;;;;;;;28.61;40.23;98333.34;5112783;28;20040;-57
2022/08/15 11:46:25;;;;;;;0.40;0.40;;;;;;;28.61;40.38;98327.72;5113038;28;20426;-56
2022/08/15 11:49:06;;;;;;;0.32;0.30;;;;;;;28.64;40.13;98326.81;5112745;28;20491;-56
2022/08/15 11:51:41;;;;;;;0.60;0.50;;;;;;;28.67;40.36;98323.09;5112035;28;20070;-56
2022/08/15 11:54:10;;;;;;;0.35;0.35;;;;;;;28.68;39.99;98321.84;5112841;28;20587;-56
2022/08/15 11:57:00;;;;;;;0.40;0.30;;;;;;;28.68;40.24;98328.25;5112933;28;20333;-57
2022/08/15 11:59:28;;;;;;;0.50;0.30;;;;;;;28.72;40.02;98311.25;5112767;28;20051;-56
2022/08/15 12:02:18;;;;;;;0.32;0.32;;;;;;;28.75;40.02;98319.56;5112730;28;20514;-57
2022/08/15 12:04:48;;;;;;;0.45;0.45;;;;;;;28.75;39.95;98322.38;5112571;28;20054;-57
2022/08/15 12:07:27;;;;;;;0.63;0.45;;;;;;;28.76;39.89;98309.88;5112690;28;20039;-57